หน้าหลัก
METAR-TAF:

METAR-TAF

ท่าอากาศยาน :

Lanseria, แอฟริกาใต้

ละติจูด: 25-56S, ลองจิจูด: 027-56E, ความสูง: 1377 ม.

การสังเกตสภาพอากาศปัจจุบัน

รายงานได้ทำขึ้นเมื่อ 1 ชั่วโมงและ 6 นาทีที่แล้ว ณ เวลา 10:00 UTC
ลม 2 นอตจากทิศทางซึ่งแปรผันได้
อุณหภูมิ 25°C
ความชื้น 26%
ความกดอากาศ 1027 hPa
ทัศนวิสัย 10 กม. หรือมากกว่า
ไม่มีเมฆต่ำกว่า 1,500 ม. และไม่มีเมฆคิวมูโลนิมบัส

METAR: FALA 181000Z VRB02KT CAVOK 25/04 Q1027 NOSIG

เวลา: 13:06 (11:06 UTC)

การพยากรณ์

รายงานได้ทำขึ้นเมื่อ 7 ชั่วโมงและ 6 นาทีที่แล้ว ณ เวลา 04:00 UTC
การพยากรณ์มีผลตั้งแต่วันที่ 18 ณ เวลา 06 UTC จนถึงวันที่ 19 ณ เวลา 06 UTC
ลม 3 นอตจากทิศทางซึ่งแปรผันได้
ทัศนวิสัย 10 กม. หรือมากกว่า
ไม่มีเมฆต่ำกว่า 1,500 ม. และไม่มีเมฆคิวมูโลนิมบัส

TAF: FALA 180400Z 1806/1906 VRB03KT CAVOK TX26/1813Z TN10/1903Z

สังเกตการณ์สภาพอากาศและพยากรณ์อากาศของสนามบินมากกว่า 4000 แห่ง (รายงาน METAR และ TAF).

สถานีที่ดูได้จะแสดงไว้ด้วยจุดสีเหลืองและสีแดงบนแผนที่.

เลื่อนเมาส์ไปเหนือจุดเพื่อดูชื่อสถานี.

แล้วคลิกเพื่อดูสังเกตการณ์และการพยากรณ์สภาพอากาศ.

ในการเปลี่ยนแผนที่: คลิกที่ปุ่มสีเขียวที่มีกากบาทสีดำเพื่อซูมเข้า; ที่ปุ่มสีเขียวที่มีขีดเพื่อซูมออก; หรือที่ลูกศรสีเขียวเพื่อไปยังแผนที่ที่อยู่ติดกัน.


METAR-TAF: